ADDS METAR Data INFO
IDs: Format: Raw Decoded Include TAF

Data at: 0750 UTC 17 Oct 2017

KOUN 170735Z AUTO 17004KT 10SM CLR 08/05 A3028 RMK AO2
KOUN 170715Z AUTO 17004KT 10SM CLR 08/05 A3028 RMK AO2
KOUN 170655Z AUTO 18004KT 10SM CLR 08/06 A3028 RMK AO2
KOUN 170635Z AUTO 18003KT 10SM CLR 08/06 A3029 RMK AO2
KOUN 170615Z AUTO 15003KT 10SM CLR 10/06 A3029 RMK AO2
KOUN 170555Z AUTO 18003KT 10SM CLR 10/06 A3030 RMK AO2
KOUN 170535Z AUTO 00000KT 10SM CLR 10/06 A3030 RMK AO2
KOUN 170515Z AUTO 00000KT 10SM CLR 10/06 A3030 RMK AO2
KOUN 170455Z AUTO 00000KT 10SM CLR 10/06 A3030 RMK AO2
KOUN 170435Z AUTO 18003KT 10SM CLR 10/06 A3030 RMK AO2
KOUN 170415Z AUTO 00000KT 10SM CLR 11/06 A3031 RMK AO2
KOUN 170355Z AUTO 00000KT 10SM CLR 11/06 A3030 RMK AO2
KOUN 170335Z AUTO 00000KT 10SM CLR 12/06 A3030 RMK AO2
KOUN 170315Z AUTO 00000KT 10SM CLR 12/06 A3030 RMK AO2
KOUN 170255Z AUTO 00000KT 10SM CLR 12/06 A3030 RMK AO2
KOUN 170235Z AUTO 00000KT 10SM CLR 12/06 A3030 RMK AO2
KOUN 170215Z AUTO 00000KT 10SM CLR 13/06 A3030 RMK AO2
KOUN 170155Z AUTO 00000KT 10SM CLR 13/06 A3029 RMK AO2
KOUN 170135Z AUTO 14003KT 10SM 14/06 A3030 RMK AO2
KOUN 170115Z AUTO 13004KT 10SM CLR 15/06 A3029 RMK AO2
KOUN 170055Z AUTO 13004KT 10SM CLR 15/05 A3029 RMK AO2
KOUN 170035Z AUTO 00000KT 10SM CLR 16/05 A3029 RMK AO2
KOUN 170015Z AUTO 13003KT 10SM CLR 16/05 A3029 RMK AO2
KOUN 162355Z AUTO 16003KT 10SM CLR 17/05 A3029 RMK AO2
KOUN 162335Z AUTO 16004KT 10SM CLR 17/05 A3029 RMK AO2
KOUN 162315Z AUTO 15004KT 10SM CLR 18/05 A3030 RMK AO2
KOUN 162255Z AUTO 15005KT 10SM CLR 19/05 A3030 RMK AO2
KOUN 162235Z AUTO 17003KT 10SM CLR 20/05 A3030 RMK AO2
KOUN 162215Z AUTO 15005KT 10SM CLR 20/05 A3031 RMK AO2
KOUN 162155Z AUTO 14005KT 10SM CLR 20/05 A3031 RMK AO2
KOUN 162135Z AUTO 00000KT 10SM CLR 20/05 A3031 RMK AO2
KOUN 162115Z AUTO 00000KT 10SM CLR 20/05 A3031 RMK AO2
KOUN 162055Z AUTO 15006KT 10SM CLR 20/05 A3032 RMK AO2
KOUN 162035Z AUTO 15005KT 10SM CLR 20/05 A3033 RMK AO2
KOUN 162015Z AUTO 07004KT 10SM CLR 20/05 A3034 RMK AO2
KOUN 161955Z AUTO 07003KT 10SM CLR 19/05 A3035 RMK AO2
KOUN 161935Z AUTO 10004KT 10SM CLR 19/05 A3036 RMK AO2
KOUN 161915Z AUTO 11005KT 10SM CLR 19/04 A3038 RMK AO2
KOUN 161855Z AUTO 00000KT 10SM CLR 18/05 A3039 RMK AO2
KOUN 161835Z AUTO 16004KT 10SM CLR 18/04 A3040 RMK AO2
KOUN 161815Z AUTO 12009KT 10SM CLR 18/04 A3042 RMK AO2
KOUN 161755Z AUTO 09006KT 10SM CLR 18/03 A3043 RMK AO2
KOUN 161735Z AUTO 08009KT 10SM CLR 17/03 A3044 RMK AO2
KOUN 161715Z AUTO 11004KT 10SM CLR 17/03 A3045 RMK AO2
KOUN 161655Z AUTO 12006KT 10SM CLR 17/03 A3046 RMK AO2
KOUN 161635Z AUTO 09005KT 10SM CLR 16/03 A3046 RMK AO2
KOUN 161615Z AUTO 12003KT 10SM CLR 16/03 A3046 RMK AO2
KOUN 161555Z AUTO 08003KT 10SM CLR 15/03 A3046 RMK AO2
KOUN 161535Z AUTO 00000KT 10SM CLR 15/04 A3046 RMK AO2
KOUN 161515Z AUTO 00000KT 10SM CLR 14/05 A3046 RMK AO2
KOUN 161455Z AUTO 00000KT 10SM CLR 13/05 A3046 RMK AO2
KOUN 161435Z AUTO 00000KT 10SM CLR 12/06 A3046 RMK AO2
KOUN 161415Z AUTO 00000KT 10SM CLR 11/07 A3046 RMK AO2
KOUN 161355Z AUTO 00000KT 10SM CLR 09/07 A3046 RMK AO2
KOUN 161335Z AUTO 00000KT 10SM CLR 08/06 A3045 RMK AO2
KOUN 161315Z AUTO 00000KT 10SM CLR 07/05 A3045 RMK AO2
KOUN 161255Z AUTO 00000KT 10SM CLR 06/04 A3045 RMK AO2
KOUN 161235Z AUTO 00000KT 10SM CLR 06/03 A3044 RMK AO2
KOUN 161215Z AUTO 00000KT 10SM CLR 06/03 A3044 RMK AO2
KOUN 161155Z AUTO 00000KT 10SM CLR 07/05 A3044 RMK AO2
KOUN 161135Z AUTO 00000KT 10SM CLR 07/05 A3043 RMK AO2
KOUN 161115Z AUTO 00000KT 10SM CLR 07/05 A3043 RMK AO2
KOUN 161055Z AUTO 00000KT 10SM CLR 06/05 A3043 RMK AO2
KOUN 161035Z AUTO 34003KT 10SM CLR 06/04 A3043 RMK AO2
KOUN 161015Z AUTO 34004KT 10SM CLR 06/05 A3043 RMK AO2
KOUN 160955Z AUTO 33004KT 10SM CLR 07/05 A3043 RMK AO2
KOUN 160935Z AUTO 33003KT 10SM CLR 07/05 A3043 RMK AO2
KOUN 160915Z AUTO 00000KT 10SM CLR 07/05 A3043 RMK AO2
KOUN 160855Z AUTO 00000KT 10SM CLR 07/05 A3043 RMK AO2
KOUN 160835Z AUTO 00000KT 10SM CLR 06/05 A3043 RMK AO2
KOUN 160815Z AUTO 00000KT 10SM CLR 07/05 A3043 RMK AO2
KOUN 160755Z AUTO 32003KT 10SM CLR 08/05 A3043 RMK AO2
KOUN 160735Z AUTO 00000KT 10SM CLR 07/05 A3043 RMK AO2
KOUN 160715Z AUTO 33004KT 10SM CLR 08/05 A3043 RMK AO2
KOUN 160655Z AUTO 34003KT 10SM CLR 09/05 A3043 RMK AO2
KOUN 160635Z AUTO 00000KT 10SM CLR 09/05 A3043 RMK AO2
KOUN 160615Z AUTO 00000KT 10SM CLR 10/05 A3042 RMK AO2
KOUN 160555Z AUTO 00000KT 10SM CLR 08/05 A3042 RMK AO2
KOUN 160535Z AUTO 00000KT 10SM CLR 09/05 A3042 RMK AO2
KOUN 160515Z AUTO 00000KT 10SM CLR 08/05 A3042 RMK AO2
KOUN 160455Z AUTO 01003KT 10SM CLR 08/05 A3042 RMK AO2
KOUN 160435Z AUTO 01004KT 10SM CLR 08/05 A3042 RMK AO2
KOUN 160415Z AUTO 36004KT 10SM CLR 08/05 A3042 RMK AO2
KOUN 160355Z AUTO 35003KT 10SM CLR 10/05 A3042 RMK AO2
KOUN 160335Z AUTO 00000KT 10SM CLR 10/05 A3042 RMK AO2
KOUN 160315Z AUTO 00000KT 10SM CLR 10/05 A3041 RMK AO2
KOUN 160255Z AUTO 02003KT 10SM CLR 10/05 A3041 RMK AO2
KOUN 160235Z AUTO 00000KT 10SM CLR 10/05 A3041 RMK AO2
KOUN 160215Z AUTO 02004KT 10SM CLR 10/05 A3040 RMK AO2
KOUN 160155Z AUTO 01005KT 10SM CLR 10/04 A3040 RMK AO2
KOUN 160135Z AUTO 01005KT 10SM CLR 11/04 A3039 RMK AO2
KOUN 160120Z AUTO 01005KT 10SM CLR 11/04 A3039 RMK AO2
KOUN 160055Z AUTO 35007KT 10SM CLR 12/04 A3038 RMK AO2
KOUN 160035Z AUTO 35007KT 10SM CLR 12/03 A3038 RMK AO2
KOUN 160015Z AUTO 35007KT 10SM CLR 13/03 A3037 RMK AO2
KOUN 152355Z AUTO 36008KT 10SM CLR 15/03 A3037 RMK AO2
KOUN 152335Z AUTO 35009KT 10SM CLR 16/03 A3036 RMK AO2
KOUN 152315Z AUTO 35010KT 10SM CLR 16/03 A3035 RMK AO2
KOUN 152255Z AUTO 35013G17KT 10SM CLR 17/04 A3035 RMK AO2
KOUN 152235Z AUTO 34012G16KT 10SM CLR 18/04 A3036 RMK AO2
KOUN 152215Z AUTO 34013KT 10SM CLR 18/04 A3036 RMK AO2
KOUN 152155Z AUTO 35016G19KT 10SM CLR 18/04 A3036 RMK AO2
KOUN 152135Z AUTO 01011G17KT 10SM CLR 18/05 A3037 RMK AO2
KOUN 152115Z AUTO 35013G21KT 10SM CLR 18/05 A3037 RMK AO2
KOUN 152055Z AUTO 01011G17KT 10SM CLR 18/06 A3037 RMK AO2
KOUN 152035Z AUTO 36011KT 10SM CLR 18/05 A3038 RMK AO2
KOUN 152015Z AUTO 33012G17KT 10SM CLR 18/06 A3038 RMK AO2
KOUN 151955Z AUTO 35010G16KT 10SM CLR 18/06 A3038 RMK AO2